Fort Myers Airport, FL

3:47 AM EST on November 23, 2014 (GMT -0500)
Charlotte County | Change Station
CLOSE
Current Station
Airport
Location: Punta Gorda,
Elevation: 26 ft
Nearby Weather Stations

Elev 26 ft 26.92 °N, 81.99 °W | Updated 9 minutes ago

Overcast
Overcast
73 °F
Feels Like 73 °F
N
8
Wind Variable Wind from ESE

Today
High -- | Low -- °F
--% Chance of Precip.
Yesterday
High -- | Low -- °F
Precip. -- in
6:52 AM 5:34 PM
New Moon, 1% visible
Pressure 30.02 in
Visibility 9.0 miles
Clouds Mostly Cloudy 800 ft
Overcast 1400 ft
Dew Point 71 °F
Humidity 93%
Rainfall 0.00 in
Snow Depth Not available.
UV 0 out of 12
Pollen 4.30 out of 12
Air Quality Not available.
Flu Activity Not available.
SPECI KPGD 230838Z AUTO 12007KT 9SM BKN008 OVC014 23/22 A3002 RMK AO2 CIG 007V011 T02280217 $

More Conditions Fewer Conditions

Pressure 30.02 in
Visibility 9.0 miles
Clouds Mostly Cloudy 800 ft
Overcast 1400 ft
Dew Point 71 °F
Humidity 93%
Rainfall 0.00 in
Snow Depth Not available.
UV 0 out of 12
Pollen 4.30 out of 12
Air Quality Not available.
Flu Activity Not available.
SPECI KPGD 230838Z AUTO 12007KT 9SM BKN008 OVC014 23/22 A3002 RMK AO2 CIG 007V011 T02280217 $

More Conditions Fewer Conditions

10-Day Weather Forecast

Almanac

Astronomy

Nov. 23, 2014 Rise Set
Actual Time
Civil Twilight
Nautical Twilight
Astronomical Twilight
Moon
Length of Visible Light
Length of Day
Tomorrow will be .
, % of the Moon is Illuminated

Today's Extremes

State Highs State Lows

Community

WunderPhotos

Upload Photos

1,773,024 photos uploaded!

WunderBlogs® & News

Nearby

Air Quality

  Air Quality AQ Index Pollutant
Not available.

Snow Depth

Station Depth Elevation

Earthquake Activity

City Distance Mag. Time & Date
Minimum magnitude displayed is 2.5.

Coastal Water Temperatures

Place Temperature

Nearby Weather Stations